createdAt,value
2018-08-17T00:01:31.572Z,8.03
2018-08-17T00:03:58.944Z,5.27
2018-08-17T00:06:26.350Z,9.47
2018-08-17T00:08:53.720Z,9.37
2018-08-17T00:11:21.079Z,8.77
2018-08-17T00:13:48.440Z,6.93
2018-08-17T00:16:15.791Z,7.53
2018-08-17T00:18:43.227Z,8.60
2018-08-17T00:21:10.659Z,5.57
2018-08-17T00:23:38.011Z,8.00
2018-08-17T00:26:05.640Z,6.77
2018-08-17T00:28:32.982Z,6.80
2018-08-17T00:31:00.355Z,8.73
2018-08-17T00:33:27.734Z,7.63
2018-08-17T00:35:55.151Z,6.40
2018-08-17T00:38:22.540Z,6.93
2018-08-17T00:40:49.936Z,9.43
2018-08-17T00:43:17.313Z,8.53
2018-08-17T00:45:44.668Z,6.80
2018-08-17T00:48:12.072Z,8.00
2018-08-17T00:50:39.396Z,6.37
2018-08-17T00:53:06.799Z,5.97
2018-08-17T00:55:34.248Z,6.60
2018-08-17T00:58:01.567Z,4.90
2018-08-17T01:00:28.932Z,4.87
2018-08-17T01:02:56.292Z,6.47
2018-08-17T01:05:23.662Z,5.43
2018-08-17T01:07:51.062Z,5.40
2018-08-17T01:10:18.428Z,6.67
2018-08-17T01:12:45.797Z,9.30
2018-08-17T01:15:13.167Z,6.30
2018-08-17T01:17:40.758Z,6.00
2018-08-17T01:20:09.624Z,6.50
2018-08-17T01:22:37.116Z,4.03
2018-08-17T01:25:04.498Z,4.47
2018-08-17T01:27:31.874Z,6.73
2018-08-17T01:29:59.228Z,6.40
2018-08-17T01:32:26.697Z,7.87
2018-08-17T01:34:54.068Z,4.83
2018-08-17T01:37:21.454Z,6.73
2018-08-17T01:39:48.824Z,6.17
2018-08-17T01:42:16.184Z,5.63
2018-08-17T01:44:43.552Z,5.40
2018-08-17T01:47:10.911Z,5.30
2018-08-17T01:49:38.286Z,5.33
2018-08-17T01:52:05.691Z,7.70
2018-08-17T01:54:33.071Z,5.23
2018-08-17T01:57:00.459Z,9.23
2018-08-17T01:59:27.832Z,6.67
2018-08-17T02:01:55.210Z,8.00
2018-08-17T02:04:22.607Z,4.10
2018-08-17T02:06:49.959Z,5.80
2018-08-17T02:09:17.318Z,5.37
2018-08-17T02:11:44.672Z,5.60
2018-08-17T02:14:12.033Z,5.53
2018-08-17T02:16:39.943Z,5.03
2018-08-17T02:19:07.307Z,6.33
2018-08-17T02:21:34.688Z,3.23
2018-08-17T02:24:02.023Z,5.60
2018-08-17T02:26:29.423Z,6.37
2018-08-17T02:28:56.804Z,7.90
2018-08-17T02:31:24.188Z,6.67
2018-08-17T02:33:51.888Z,7.20
2018-08-17T02:36:19.271Z,5.50
2018-08-17T02:38:46.659Z,7.27
2018-08-17T02:41:14.039Z,6.83
2018-08-17T02:43:41.416Z,5.00
2018-08-17T02:46:08.787Z,3.87
2018-08-17T02:48:36.143Z,5.93
2018-08-17T02:51:03.508Z,8.37
2018-08-17T02:53:30.896Z,9.13
2018-08-17T02:55:58.271Z,5.47
2018-08-17T02:58:25.639Z,6.57
2018-08-17T03:00:53.034Z,8.57
2018-08-17T03:03:20.395Z,6.60
2018-08-17T03:05:47.763Z,10.73
2018-08-17T03:08:15.120Z,7.50
2018-08-17T03:10:42.497Z,5.97
2018-08-17T03:13:09.852Z,5.60
2018-08-17T03:15:37.222Z,6.40
2018-08-17T03:18:04.640Z,4.50
2018-08-17T03:20:31.997Z,4.60
2018-08-17T03:22:59.533Z,8.43
2018-08-17T03:25:26.901Z,5.97
2018-08-17T03:27:54.284Z,5.10
2018-08-17T03:30:21.666Z,6.23
2018-08-17T03:32:49.019Z,5.23
2018-08-17T03:35:16.399Z,4.83
2018-08-17T03:37:43.784Z,5.53
2018-08-17T03:40:11.146Z,5.93
2018-08-17T03:42:38.532Z,9.60
2018-08-17T03:45:05.897Z,6.37
2018-08-17T03:47:33.254Z,6.80
2018-08-17T03:50:00.619Z,4.83
2018-08-17T03:52:27.990Z,6.13
2018-08-17T03:54:55.364Z,6.17
2018-08-17T03:57:22.784Z,5.80
2018-08-17T03:59:50.322Z,7.43
2018-08-17T04:02:17.715Z,4.80
2018-08-17T04:04:45.071Z,8.03
2018-08-17T04:07:12.453Z,4.20
2018-08-17T04:09:39.815Z,7.13
2018-08-17T04:12:07.204Z,6.10
2018-08-17T04:14:34.575Z,9.40
2018-08-17T04:17:01.948Z,6.70
2018-08-17T04:19:29.321Z,8.70
2018-08-17T04:21:56.688Z,8.83
2018-08-17T04:24:24.062Z,5.70
2018-08-17T04:26:51.428Z,8.87
2018-08-17T04:29:18.820Z,7.27
2018-08-17T04:31:46.202Z,6.23
2018-08-17T04:34:13.571Z,4.67
2018-08-17T04:36:40.938Z,8.17
2018-08-17T04:39:08.328Z,6.30
2018-08-17T04:41:35.699Z,6.97
2018-08-17T04:44:03.064Z,4.73
2018-08-17T04:46:30.447Z,6.60
2018-08-17T04:48:57.819Z,5.53
2018-08-17T04:51:25.203Z,7.43
2018-08-17T04:53:52.589Z,5.93
2018-08-17T04:56:19.944Z,6.60
2018-08-17T04:58:47.340Z,4.73
2018-08-17T05:01:14.703Z,8.67
2018-08-17T05:03:42.074Z,8.63
2018-08-17T05:06:09.423Z,4.80
2018-08-17T05:08:36.794Z,7.87
2018-08-17T05:11:04.171Z,8.43
2018-08-17T05:13:31.579Z,5.03
2018-08-17T05:15:58.951Z,6.67
2018-08-17T05:18:26.323Z,7.33
2018-08-17T05:20:53.694Z,4.97
2018-08-17T05:23:21.114Z,8.23
2018-08-17T05:25:48.490Z,6.27
2018-08-17T05:28:15.864Z,8.30
2018-08-17T05:30:43.405Z,7.37
2018-08-17T05:33:11.383Z,8.53
2018-08-17T05:35:38.723Z,5.87
2018-08-17T05:38:06.067Z,8.37
2018-08-17T05:40:33.447Z,6.80
2018-08-17T05:43:00.832Z,6.13
2018-08-17T05:45:28.164Z,5.33
2018-08-17T05:47:55.584Z,6.00
2018-08-17T05:50:22.940Z,6.50
2018-08-17T05:52:50.286Z,9.27
2018-08-17T05:55:17.659Z,7.27
2018-08-17T05:57:45.011Z,5.53
2018-08-17T06:00:12.432Z,7.90
2018-08-17T06:02:39.808Z,8.93
2018-08-17T06:05:07.990Z,5.77
2018-08-17T06:07:35.579Z,8.47
2018-08-17T06:10:03.366Z,4.77
2018-08-17T06:12:30.733Z,6.97
2018-08-17T06:14:58.071Z,8.57
2018-08-17T06:17:25.513Z,7.90
2018-08-17T06:19:53.157Z,6.87
2018-08-17T06:22:20.911Z,5.03
2018-08-17T06:24:49.010Z,5.87
2018-08-17T06:27:16.374Z,8.03
2018-08-17T06:29:43.824Z,9.40
2018-08-17T06:32:11.274Z,7.30
2018-08-17T06:34:39.223Z,7.60
2018-08-17T06:37:06.855Z,10.10
2018-08-17T06:39:34.215Z,9.87
2018-08-17T06:42:01.599Z,13.07
2018-08-17T06:44:28.979Z,9.33
2018-08-17T06:46:56.368Z,9.00
2018-08-17T06:49:23.727Z,9.80
2018-08-17T06:51:51.112Z,10.47
2018-08-17T06:54:18.708Z,9.30
2018-08-17T06:56:46.091Z,9.53
2018-08-17T06:59:13.479Z,9.37
2018-08-17T07:01:40.887Z,14.80
2018-08-17T07:04:08.276Z,11.30
2018-08-17T07:06:35.638Z,11.80
2018-08-17T07:09:04.350Z,12.27
2018-08-17T07:11:31.734Z,11.67
2018-08-17T07:13:59.097Z,13.13
2018-08-17T07:16:26.454Z,13.20
2018-08-17T07:18:53.828Z,13.80
2018-08-17T07:21:21.227Z,13.90
2018-08-17T07:23:48.579Z,13.67
2018-08-17T07:26:15.939Z,11.83
2018-08-17T07:28:43.783Z,14.27
2018-08-17T07:31:11.140Z,12.50
2018-08-17T07:33:38.504Z,10.10
2018-08-17T07:36:05.876Z,11.27
2018-08-17T07:38:33.259Z,11.43
2018-08-17T07:41:00.640Z,14.33
2018-08-17T07:43:27.999Z,10.80
2018-08-17T07:45:55.360Z,13.40
2018-08-17T07:48:22.845Z,11.13
2018-08-17T07:50:50.115Z,10.27
2018-08-17T07:53:17.499Z,12.50
2018-08-17T07:55:44.901Z,8.37
2018-08-17T07:58:12.293Z,9.00
2018-08-17T08:00:39.692Z,10.20
2018-08-17T08:03:07.075Z,11.17
2018-08-17T08:05:35.138Z,9.13
2018-08-17T08:08:02.521Z,7.87
2018-08-17T08:10:29.904Z,11.37
2018-08-17T08:12:57.275Z,12.40
2018-08-17T08:15:24.656Z,8.37
2018-08-17T08:17:52.004Z,9.00
2018-08-17T08:20:35.767Z,6.83
2018-08-17T08:23:15.005Z,9.93
2018-08-17T08:25:42.361Z,8.73
2018-08-17T08:28:09.778Z,7.30
2018-08-17T08:30:37.126Z,8.20
2018-08-17T08:33:04.506Z,9.10
2018-08-17T08:35:31.919Z,6.53
2018-08-17T08:37:59.367Z,15.50
2018-08-17T08:40:26.787Z,9.47
2018-08-17T08:42:54.364Z,9.73
2018-08-17T08:45:21.799Z,10.60
2018-08-17T08:47:49.184Z,7.77
2018-08-17T08:50:16.574Z,10.00
2018-08-17T08:52:43.956Z,7.17
2018-08-17T08:55:11.420Z,8.67
2018-08-17T08:57:38.999Z,4.27
2018-08-17T09:00:07.279Z,6.57
2018-08-17T09:02:34.665Z,6.43
2018-08-17T09:05:02.053Z,4.40
2018-08-17T09:07:29.415Z,4.90
2018-08-17T09:09:56.811Z,9.40
2018-08-17T09:12:24.273Z,7.10
2018-08-17T09:14:51.660Z,5.50
2018-08-17T09:17:19.077Z,4.57
2018-08-17T09:19:46.466Z,4.53
2018-08-17T09:22:13.843Z,6.87
2018-08-17T09:24:41.220Z,5.67
2018-08-17T09:27:08.627Z,4.70
2018-08-17T09:29:36.141Z,5.50
2018-08-17T09:32:03.551Z,8.60
2018-08-17T09:34:31.629Z,5.27
2018-08-17T09:36:58.989Z,6.23
2018-08-17T09:39:26.820Z,5.17
2018-08-17T09:41:54.282Z,6.17
2018-08-17T09:44:21.915Z,6.20
2018-08-17T09:46:49.291Z,2.90
2018-08-17T09:49:16.908Z,7.23
2018-08-17T09:51:44.285Z,4.67
2018-08-17T09:54:11.647Z,4.17
2018-08-17T09:56:39.016Z,3.23
2018-08-17T09:59:06.672Z,5.73
2018-08-17T10:01:39.715Z,3.97
2018-08-17T10:04:12.812Z,5.33
2018-08-17T10:06:46.021Z,4.53
2018-08-17T10:09:19.149Z,5.27
2018-08-17T10:11:48.515Z,6.17
2018-08-17T10:14:15.915Z,5.10
2018-08-17T10:16:43.300Z,5.53
2018-08-17T10:19:10.671Z,3.63
2018-08-17T10:21:42.240Z,2.03
2018-08-17T10:24:09.484Z,5.43
2018-08-17T10:26:36.936Z,5.83
2018-08-17T10:29:04.291Z,6.50
2018-08-17T10:31:32.836Z,6.13
2018-08-17T10:34:00.227Z,5.50
2018-08-17T10:36:27.572Z,4.03
2018-08-17T10:38:54.938Z,3.40
2018-08-17T10:41:22.378Z,4.73
2018-08-17T10:43:49.728Z,4.17
2018-08-17T10:46:17.108Z,3.27
2018-08-17T10:48:44.510Z,5.67
2018-08-17T10:51:11.897Z,2.93
2018-08-17T10:53:43.589Z,5.67
2018-08-17T10:56:10.934Z,3.63
2018-08-17T10:58:38.280Z,5.37
2018-08-17T11:01:05.884Z,5.37
2018-08-17T11:03:33.260Z,5.97
2018-08-17T11:06:00.686Z,5.87
2018-08-17T11:08:28.887Z,2.73
2018-08-17T11:10:56.287Z,2.20
2018-08-17T11:13:23.716Z,3.23
2018-08-17T11:15:51.071Z,2.83
2018-08-17T11:18:18.561Z,5.73
2018-08-17T11:20:45.944Z,5.03
2018-08-17T11:23:13.327Z,5.13
2018-08-17T11:25:40.680Z,6.33
2018-08-17T11:28:08.063Z,4.37
2018-08-17T11:30:35.443Z,4.53
2018-08-17T11:33:02.879Z,3.17
2018-08-17T11:35:30.279Z,3.10
2018-08-17T11:37:57.656Z,4.57
2018-08-17T11:40:25.030Z,3.47
2018-08-17T11:42:52.511Z,3.03
2018-08-17T11:45:21.141Z,3.70
2018-08-17T11:47:48.887Z,4.83
2018-08-17T11:50:17.823Z,7.00
2018-08-17T11:53:00.010Z,5.63
2018-08-17T11:55:29.298Z,6.10
2018-08-17T11:57:56.647Z,6.67
2018-08-17T12:00:25.028Z,3.70
2018-08-17T12:02:52.409Z,2.87
2018-08-17T12:05:19.806Z,2.77
2018-08-17T12:07:47.696Z,3.50
2018-08-17T12:10:15.119Z,3.10
2018-08-17T12:12:43.435Z,3.30
2018-08-17T12:15:11.402Z,4.97
2018-08-17T12:17:38.767Z,4.20
2018-08-17T12:20:06.230Z,3.00
2018-08-17T12:22:33.583Z,3.10
2018-08-17T12:25:01.455Z,4.73
2018-08-17T12:27:28.892Z,4.33
2018-08-17T12:29:56.269Z,4.23
2018-08-17T12:32:23.912Z,3.20
2018-08-17T12:34:51.470Z,6.03
2018-08-17T12:37:19.048Z,2.47
2018-08-17T12:39:46.523Z,3.60
2018-08-17T12:42:13.882Z,5.23
2018-08-17T12:44:41.253Z,4.60
2018-08-17T12:47:08.615Z,3.47
2018-08-17T12:49:35.967Z,4.30
2018-08-17T12:52:03.537Z,2.73
2018-08-17T12:54:33.808Z,4.63
2018-08-17T12:57:02.063Z,3.80
2018-08-17T12:59:30.036Z,2.30
2018-08-17T13:01:57.429Z,2.97
2018-08-17T13:04:25.667Z,5.30
2018-08-17T13:06:53.078Z,3.23
2018-08-17T13:09:20.719Z,3.57
2018-08-17T13:11:53.795Z,5.10
2018-08-17T13:14:21.212Z,5.93
2018-08-17T13:16:48.539Z,2.27
2018-08-17T13:19:15.916Z,3.93
2018-08-17T13:21:43.268Z,1.40
2018-08-17T13:24:10.627Z,3.10
2018-08-17T13:26:37.970Z,2.20
2018-08-17T13:29:05.343Z,1.67
2018-08-17T13:31:32.692Z,1.97
2018-08-17T13:34:00.302Z,2.50
2018-08-17T13:36:27.702Z,2.13
2018-08-17T13:38:55.051Z,3.37
2018-08-17T13:41:22.650Z,3.70
2018-08-17T13:43:50.229Z,1.67
2018-08-17T13:46:17.618Z,3.93
2018-08-17T13:48:45.824Z,2.97
2018-08-17T13:51:13.404Z,3.13
2018-08-17T13:53:40.779Z,3.97
2018-08-17T13:56:09.349Z,5.13
2018-08-17T13:58:36.904Z,2.30
2018-08-17T14:01:04.259Z,4.23
2018-08-17T14:03:32.741Z,3.27
2018-08-17T14:06:00.106Z,3.67
2018-08-17T14:08:27.536Z,4.13
2018-08-17T14:10:54.864Z,1.77
2018-08-17T14:13:22.239Z,2.80
2018-08-17T14:15:49.647Z,2.90
2018-08-17T14:18:17.003Z,2.40
2018-08-17T14:20:44.395Z,3.37
2018-08-17T14:23:11.765Z,3.13
2018-08-17T14:25:39.127Z,1.60
2018-08-17T14:28:06.479Z,3.10
2018-08-17T14:30:33.824Z,3.40
2018-08-17T14:33:01.162Z,3.43
2018-08-17T14:35:28.507Z,3.60
2018-08-17T14:37:55.844Z,2.90
2018-08-17T14:40:23.299Z,3.70
2018-08-17T14:42:50.624Z,4.93
2018-08-17T14:45:17.992Z,3.60
2018-08-17T14:47:45.380Z,4.23
2018-08-17T14:50:13.528Z,2.10
2018-08-17T14:52:41.292Z,3.03
2018-08-17T14:55:09.350Z,3.53
2018-08-17T14:57:36.779Z,5.10
2018-08-17T15:00:09.091Z,3.13
2018-08-17T15:02:36.741Z,3.07
2018-08-17T15:05:04.959Z,4.13
2018-08-17T15:07:32.344Z,3.03
2018-08-17T15:09:59.687Z,2.80
2018-08-17T15:12:27.035Z,4.70
2018-08-17T15:14:54.399Z,5.67
2018-08-17T15:17:21.787Z,3.43
2018-08-17T15:19:49.151Z,2.97
2018-08-17T15:22:16.527Z,4.20
2018-08-17T15:24:43.925Z,3.20
2018-08-17T15:27:11.296Z,4.20
2018-08-17T15:29:38.660Z,4.00
2018-08-17T15:32:06.062Z,2.93
2018-08-17T15:34:33.411Z,3.17
2018-08-17T15:37:00.768Z,3.03
2018-08-17T15:39:28.136Z,1.03
2018-08-17T15:41:55.478Z,2.77
2018-08-17T15:44:25.678Z,4.20
2018-08-17T15:46:54.020Z,3.80
2018-08-17T15:49:26.853Z,2.00
2018-08-17T15:51:54.330Z,2.83
2018-08-17T15:54:21.682Z,4.10
2018-08-17T15:56:49.027Z,2.83
2018-08-17T15:59:16.415Z,2.10
2018-08-17T16:01:43.859Z,2.13
2018-08-17T16:04:11.287Z,4.30
2018-08-17T16:06:38.919Z,3.07
2018-08-17T16:09:08.663Z,1.57
2018-08-17T16:11:36.040Z,4.70
2018-08-17T16:14:03.647Z,1.53
2018-08-17T16:16:31.050Z,3.97
2018-08-17T16:18:58.440Z,4.50
2018-08-17T16:21:25.802Z,2.37
2018-08-17T16:23:53.222Z,3.07
2018-08-17T16:26:20.642Z,4.17
2018-08-17T16:28:48.023Z,3.33
2018-08-17T16:31:15.398Z,2.57
2018-08-17T16:33:42.763Z,2.77
2018-08-17T16:36:10.131Z,3.83
2018-08-17T16:38:38.128Z,1.87
2018-08-17T16:41:06.003Z,2.13
2018-08-17T16:43:43.721Z,8.47
2018-08-17T16:46:11.546Z,3.50
2018-08-17T16:48:39.829Z,3.60
2018-08-17T16:51:07.230Z,1.60
2018-08-17T16:53:34.717Z,2.80
2018-08-17T16:56:02.128Z,2.70
2018-08-17T16:58:29.503Z,3.47
2018-08-17T17:00:57.028Z,2.90
2018-08-17T17:03:24.447Z,2.67
2018-08-17T17:05:58.133Z,2.30
2018-08-17T17:08:25.543Z,2.53
2018-08-17T17:10:53.514Z,2.53
2018-08-17T17:13:21.008Z,2.63
2018-08-17T17:15:50.837Z,1.43
2018-08-17T17:18:18.518Z,1.80
2018-08-17T17:20:45.983Z,1.80
2018-08-17T17:23:13.343Z,2.20
2018-08-17T17:25:41.034Z,2.57
2018-08-17T17:28:08.794Z,1.90
2018-08-17T17:30:43.583Z,2.17
2018-08-17T17:33:11.192Z,2.67
2018-08-17T17:35:39.754Z,1.67
2018-08-17T17:38:07.659Z,1.40
2018-08-17T17:40:35.119Z,2.27
2018-08-17T17:43:02.666Z,1.27
2018-08-17T17:45:30.060Z,1.47
2018-08-17T17:47:59.396Z,5.43
2018-08-17T17:50:26.789Z,2.83
2018-08-17T17:52:54.357Z,3.03
2018-08-17T17:55:22.076Z,1.93
2018-08-17T17:57:51.290Z,1.97
2018-08-17T18:00:18.679Z,2.80
2018-08-17T18:02:47.211Z,2.33
2018-08-17T18:05:14.640Z,2.50
2018-08-17T18:07:51.610Z,3.90
2018-08-17T18:10:20.598Z,2.47
2018-08-17T18:12:48.292Z,4.13
2018-08-17T18:15:15.703Z,3.57
2018-08-17T18:17:43.064Z,2.10
2018-08-17T18:20:11.297Z,3.57
2018-08-17T18:22:38.724Z,3.13
2018-08-17T18:25:11.763Z,2.03
2018-08-17T18:27:39.234Z,3.10
2018-08-17T18:30:06.650Z,2.87
2018-08-17T18:32:34.079Z,2.47
2018-08-17T18:35:01.615Z,3.10
2018-08-17T18:37:29.124Z,7.47
2018-08-17T18:39:56.547Z,9.73
2018-08-17T18:42:23.911Z,4.27
2018-08-17T18:44:51.578Z,3.47
2018-08-17T18:47:18.923Z,2.47
2018-08-17T18:49:46.248Z,4.57
2018-08-17T18:52:13.611Z,1.87
2018-08-17T18:54:41.132Z,3.43
2018-08-17T18:57:08.509Z,5.07
2018-08-17T18:59:36.140Z,2.83
2018-08-17T19:02:03.639Z,2.43
2018-08-17T19:04:31.591Z,3.77
2018-08-17T19:06:59.428Z,4.63
2018-08-17T19:09:27.335Z,4.30
2018-08-17T19:11:54.723Z,1.90
2018-08-17T19:14:22.196Z,3.17
2018-08-17T19:16:49.718Z,2.03
2018-08-17T19:19:17.286Z,2.63
2018-08-17T19:21:44.715Z,4.27
2018-08-17T19:24:12.652Z,4.27
2018-08-17T19:26:40.032Z,2.63
2018-08-17T19:29:07.617Z,3.67
2018-08-17T19:31:36.008Z,3.23
2018-08-17T19:34:03.752Z,2.60
2018-08-17T19:36:31.496Z,4.07
2018-08-17T19:38:59.192Z,1.87
2018-08-17T19:41:26.684Z,4.50
2018-08-17T19:43:54.091Z,4.20
2018-08-17T19:46:21.874Z,3.40
2018-08-17T19:48:49.611Z,3.47
2018-08-17T19:51:18.299Z,3.03
2018-08-17T19:53:45.985Z,3.13
2018-08-17T19:56:13.938Z,4.43
2018-08-17T19:58:41.933Z,3.00
2018-08-17T20:01:09.512Z,3.60
2018-08-17T20:03:37.000Z,3.60
2018-08-17T20:06:04.405Z,3.27
2018-08-17T20:08:31.818Z,3.33
2018-08-17T20:10:59.211Z,3.33
2018-08-17T20:13:26.678Z,5.00
2018-08-17T20:15:54.094Z,4.27
2018-08-17T20:18:21.909Z,5.33
2018-08-17T20:20:49.312Z,3.10
2018-08-17T20:23:16.761Z,6.27
2018-08-17T20:25:44.287Z,3.83
2018-08-17T20:28:11.614Z,3.83
2018-08-17T20:30:38.990Z,5.37
2018-08-17T20:33:32.684Z,4.23
2018-08-17T20:36:00.832Z,2.93
2018-08-17T20:38:28.204Z,5.40
2018-08-17T20:40:57.948Z,3.43
2018-08-17T20:43:25.767Z,2.37
2018-08-17T20:45:53.115Z,5.70
2018-08-17T20:48:20.485Z,4.80
2018-08-17T20:50:47.824Z,5.13
2018-08-17T20:53:18.104Z,3.97
2018-08-17T20:55:45.512Z,3.60
2018-08-17T20:58:12.906Z,4.20
2018-08-17T21:00:40.393Z,5.37
2018-08-17T21:03:07.766Z,3.87
2018-08-17T21:05:35.150Z,5.70
2018-08-17T21:08:02.579Z,6.00
2018-08-17T21:10:29.943Z,5.47
2018-08-17T21:12:57.336Z,4.30
2018-08-17T21:15:25.281Z,7.83
2018-08-17T21:17:52.647Z,4.63
2018-08-17T21:20:20.043Z,7.53
2018-08-17T21:22:47.409Z,4.67
2018-08-17T21:25:14.790Z,3.83
2018-08-17T21:27:42.164Z,4.60
2018-08-17T21:30:09.983Z,6.20
2018-08-17T21:32:37.350Z,5.23
2018-08-17T21:35:06.292Z,5.77
2018-08-17T21:37:33.664Z,3.60
2018-08-17T21:40:01.027Z,5.23
2018-08-17T21:42:28.483Z,3.90
2018-08-17T21:44:55.879Z,5.10
2018-08-17T21:47:23.272Z,7.23
2018-08-17T21:49:53.809Z,4.50
2018-08-17T21:52:23.539Z,4.30
2018-08-17T21:54:50.923Z,4.83
2018-08-17T21:57:18.301Z,4.20
2018-08-17T21:59:47.223Z,5.67
2018-08-17T22:02:14.740Z,7.50
2018-08-17T22:04:42.088Z,6.27
2018-08-17T22:07:13.641Z,5.70
2018-08-17T22:09:42.287Z,5.53
2018-08-17T22:12:10.340Z,5.67
2018-08-17T22:14:38.234Z,6.57
2018-08-17T22:17:05.724Z,6.37
2018-08-17T22:19:37.823Z,5.57
2018-08-17T22:22:06.634Z,3.80
2018-08-17T22:24:38.605Z,8.20
2018-08-17T22:27:05.987Z,5.00
2018-08-17T22:29:33.381Z,7.77
2018-08-17T22:32:00.748Z,7.60
2018-08-17T22:34:28.123Z,6.43
2018-08-17T22:36:55.510Z,4.13
2018-08-17T22:39:22.875Z,7.07
2018-08-17T22:41:50.285Z,5.67
2018-08-17T22:44:23.083Z,6.47
2018-08-17T22:47:04.158Z,8.07
2018-08-17T22:49:31.935Z,7.27
2018-08-17T22:51:59.363Z,9.80
2018-08-17T22:54:26.719Z,7.37
2018-08-17T22:56:54.075Z,5.07
2018-08-17T22:59:21.439Z,6.33
2018-08-17T23:01:48.805Z,9.00
2018-08-17T23:04:16.192Z,5.23
2018-08-17T23:06:43.733Z,6.03
2018-08-17T23:09:10.949Z,9.27
2018-08-17T23:11:38.334Z,5.77
2018-08-17T23:14:14.271Z,4.23
2018-08-17T23:16:42.248Z,9.07
2018-08-17T23:19:09.647Z,8.30
2018-08-17T23:21:37.265Z,7.17
2018-08-17T23:24:04.651Z,6.87
2018-08-17T23:26:32.036Z,5.27
2018-08-17T23:28:59.444Z,7.77
2018-08-17T23:31:26.851Z,6.03
2018-08-17T23:33:54.860Z,6.43
2018-08-17T23:36:22.262Z,7.23
2018-08-17T23:38:49.621Z,10.03
2018-08-17T23:41:17.084Z,7.13
2018-08-17T23:43:44.434Z,7.80
2018-08-17T23:46:11.799Z,6.50
2018-08-17T23:48:39.248Z,6.97
2018-08-17T23:51:06.691Z,8.73
2018-08-17T23:53:34.138Z,7.93
2018-08-17T23:56:01.505Z,8.47
2018-08-17T23:58:28.868Z,7.07
